sensor_id;sensor_type;location;lat;lon;timestamp;P1;durP1;ratioP1;P2;durP2;ratioP2
42912;SDS011;50720;54.324;18.558;2023-04-15T00:00:56;17.55;;;13.20;;
42912;SDS011;50720;54.324;18.558;2023-04-15T00:03:26;20.05;;;13.48;;
42912;SDS011;50720;54.324;18.558;2023-04-15T00:08:26;19.05;;;13.27;;
42912;SDS011;50720;54.324;18.558;2023-04-15T00:10:56;22.17;;;13.07;;
42912;SDS011;50720;54.324;18.558;2023-04-15T00:13:30;19.48;;;11.85;;
42912;SDS011;50720;54.324;18.558;2023-04-15T00:16:00;19.02;;;12.93;;
42912;SDS011;50720;54.324;18.558;2023-04-15T00:18:30;20.48;;;14.02;;
42912;SDS011;50720;54.324;18.558;2023-04-15T00:20:59;17.98;;;13.00;;
42912;SDS011;50720;54.324;18.558;2023-04-15T00:23:29;21.23;;;12.82;;
42912;SDS011;50720;54.324;18.558;2023-04-15T00:25:59;20.20;;;13.10;;
42912;SDS011;50720;54.324;18.558;2023-04-15T00:28:30;19.63;;;13.60;;
42912;SDS011;50720;54.324;18.558;2023-04-15T00:31:00;17.27;;;12.93;;
42912;SDS011;50720;54.324;18.558;2023-04-15T00:33:30;17.58;;;12.93;;
42912;SDS011;50720;54.324;18.558;2023-04-15T00:36:00;18.43;;;12.70;;
42912;SDS011;50720;54.324;18.558;2023-04-15T00:38:30;15.88;;;12.10;;
42912;SDS011;50720;54.324;18.558;2023-04-15T00:41:00;19.73;;;12.25;;
42912;SDS011;50720;54.324;18.558;2023-04-15T00:43:31;18.88;;;12.82;;
42912;SDS011;50720;54.324;18.558;2023-04-15T00:46:02;19.33;;;12.02;;
42912;SDS011;50720;54.324;18.558;2023-04-15T00:48:32;17.05;;;12.10;;
42912;SDS011;50720;54.324;18.558;2023-04-15T00:51:02;19.15;;;12.38;;
42912;SDS011;50720;54.324;18.558;2023-04-15T00:53:31;17.15;;;12.70;;
42912;SDS011;50720;54.324;18.558;2023-04-15T00:56:01;14.40;;;11.68;;
42912;SDS011;50720;54.324;18.558;2023-04-15T00:58:32;14.63;;;12.05;;
42912;SDS011;50720;54.324;18.558;2023-04-15T01:01:03;18.77;;;12.43;;
42912;SDS011;50720;54.324;18.558;2023-04-15T01:03:37;17.05;;;12.85;;
42912;SDS011;50720;54.324;18.558;2023-04-15T01:06:07;15.82;;;13.10;;
42912;SDS011;50720;54.324;18.558;2023-04-15T01:08:37;21.33;;;14.43;;
42912;SDS011;50720;54.324;18.558;2023-04-15T01:11:07;19.33;;;13.65;;
42912;SDS011;50720;54.324;18.558;2023-04-15T01:13:39;19.15;;;13.30;;
42912;SDS011;50720;54.324;18.558;2023-04-15T01:16:09;17.55;;;13.15;;
42912;SDS011;50720;54.324;18.558;2023-04-15T01:18:39;18.42;;;13.05;;
42912;SDS011;50720;54.324;18.558;2023-04-15T01:21:09;18.55;;;13.63;;
42912;SDS011;50720;54.324;18.558;2023-04-15T01:23:39;20.33;;;12.98;;
42912;SDS011;50720;54.324;18.558;2023-04-15T01:26:11;22.80;;;14.65;;
42912;SDS011;50720;54.324;18.558;2023-04-15T01:28:41;19.75;;;13.80;;
42912;SDS011;50720;54.324;18.558;2023-04-15T01:31:13;20.15;;;14.50;;
42912;SDS011;50720;54.324;18.558;2023-04-15T01:33:44;18.00;;;12.43;;
42912;SDS011;50720;54.324;18.558;2023-04-15T01:36:14;25.83;;;14.68;;
42912;SDS011;50720;54.324;18.558;2023-04-15T01:38:44;18.02;;;13.77;;
42912;SDS011;50720;54.324;18.558;2023-04-15T01:41:15;18.13;;;13.57;;
42912;SDS011;50720;54.324;18.558;2023-04-15T01:43:49;22.38;;;14.55;;
42912;SDS011;50720;54.324;18.558;2023-04-15T01:46:19;20.33;;;14.10;;
42912;SDS011;50720;54.324;18.558;2023-04-15T01:48:49;16.00;;;12.70;;
42912;SDS011;50720;54.324;18.558;2023-04-15T01:51:19;21.20;;;14.10;;
42912;SDS011;50720;54.324;18.558;2023-04-15T01:53:48;21.73;;;14.18;;
42912;SDS011;50720;54.324;18.558;2023-04-15T01:56:20;20.13;;;12.48;;
42912;SDS011;50720;54.324;18.558;2023-04-15T01:58:50;20.02;;;12.85;;
42912;SDS011;50720;54.324;18.558;2023-04-15T02:01:19;20.45;;;12.07;;
42912;SDS011;50720;54.324;18.558;2023-04-15T02:03:49;18.95;;;13.65;;
42912;SDS011;50720;54.324;18.558;2023-04-15T02:06:19;21.63;;;12.98;;
42912;SDS011;50720;54.324;18.558;2023-04-15T02:08:48;21.33;;;14.27;;
42912;SDS011;50720;54.324;18.558;2023-04-15T02:11:20;19.05;;;13.50;;
42912;SDS011;50720;54.324;18.558;2023-04-15T02:13:49;20.92;;;14.10;;
42912;SDS011;50720;54.324;18.558;2023-04-15T02:16:20;18.38;;;13.55;;
42912;SDS011;50720;54.324;18.558;2023-04-15T02:18:49;21.10;;;14.75;;
42912;SDS011;50720;54.324;18.558;2023-04-15T02:21:20;24.80;;;15.70;;
42912;SDS011;50720;54.324;18.558;2023-04-15T02:23:49;21.15;;;14.32;;
42912;SDS011;50720;54.324;18.558;2023-04-15T02:26:21;22.80;;;15.07;;
42912;SDS011;50720;54.324;18.558;2023-04-15T02:28:51;20.77;;;14.63;;
42912;SDS011;50720;54.324;18.558;2023-04-15T02:31:23;18.35;;;14.20;;
42912;SDS011;50720;54.324;18.558;2023-04-15T02:33:53;20.20;;;14.00;;
42912;SDS011;50720;54.324;18.558;2023-04-15T02:36:22;18.98;;;14.35;;
42912;SDS011;50720;54.324;18.558;2023-04-15T02:38:53;19.40;;;13.90;;
42912;SDS011;50720;54.324;18.558;2023-04-15T02:43:54;21.60;;;13.20;;
42912;SDS011;50720;54.324;18.558;2023-04-15T02:46:25;23.45;;;14.38;;
42912;SDS011;50720;54.324;18.558;2023-04-15T02:48:54;18.25;;;13.27;;
42912;SDS011;50720;54.324;18.558;2023-04-15T02:51:29;20.88;;;13.40;;
42912;SDS011;50720;54.324;18.558;2023-04-15T02:53:58;21.38;;;13.85;;
42912;SDS011;50720;54.324;18.558;2023-04-15T02:56:30;20.97;;;13.50;;
42912;SDS011;50720;54.324;18.558;2023-04-15T03:01:30;21.08;;;12.35;;
42912;SDS011;50720;54.324;18.558;2023-04-15T03:03:59;19.15;;;13.35;;
42912;SDS011;50720;54.324;18.558;2023-04-15T03:06:29;18.90;;;13.57;;
42912;SDS011;50720;54.324;18.558;2023-04-15T03:08:59;20.13;;;13.38;;
42912;SDS011;50720;54.324;18.558;2023-04-15T03:11:31;19.92;;;13.18;;
42912;SDS011;50720;54.324;18.558;2023-04-15T03:14:02;20.85;;;12.27;;
42912;SDS011;50720;54.324;18.558;2023-04-15T03:16:33;17.45;;;12.57;;
42912;SDS011;50720;54.324;18.558;2023-04-15T03:19:02;18.70;;;12.30;;
42912;SDS011;50720;54.324;18.558;2023-04-15T03:21:32;20.15;;;13.13;;
42912;SDS011;50720;54.324;18.558;2023-04-15T03:24:01;18.98;;;12.90;;
42912;SDS011;50720;54.324;18.558;2023-04-15T03:26:33;21.27;;;12.57;;
42912;SDS011;50720;54.324;18.558;2023-04-15T03:29:03;19.23;;;12.80;;
42912;SDS011;50720;54.324;18.558;2023-04-15T03:31:33;18.60;;;12.70;;
42912;SDS011;50720;54.324;18.558;2023-04-15T03:34:03;18.98;;;13.75;;
42912;SDS011;50720;54.324;18.558;2023-04-15T03:36:33;18.15;;;13.48;;
42912;SDS011;50720;54.324;18.558;2023-04-15T03:39:02;21.90;;;13.13;;
42912;SDS011;50720;54.324;18.558;2023-04-15T03:41:33;19.23;;;13.25;;
42912;SDS011;50720;54.324;18.558;2023-04-15T03:44:03;16.08;;;11.43;;
42912;SDS011;50720;54.324;18.558;2023-04-15T03:46:33;19.95;;;13.63;;
42912;SDS011;50720;54.324;18.558;2023-04-15T03:49:02;23.38;;;13.13;;
42912;SDS011;50720;54.324;18.558;2023-04-15T03:51:33;18.35;;;13.90;;
42912;SDS011;50720;54.324;18.558;2023-04-15T03:54:03;18.20;;;11.90;;
42912;SDS011;50720;54.324;18.558;2023-04-15T03:56:34;19.15;;;12.48;;
42912;SDS011;50720;54.324;18.558;2023-04-15T03:59:03;18.83;;;13.20;;
42912;SDS011;50720;54.324;18.558;2023-04-15T04:01:33;20.45;;;12.23;;
42912;SDS011;50720;54.324;18.558;2023-04-15T04:04:03;19.27;;;12.80;;
42912;SDS011;50720;54.324;18.558;2023-04-15T04:06:33;20.70;;;12.98;;
42912;SDS011;50720;54.324;18.558;2023-04-15T04:09:03;19.35;;;12.48;;
42912;SDS011;50720;54.324;18.558;2023-04-15T04:11:34;16.63;;;13.43;;
42912;SDS011;50720;54.324;18.558;2023-04-15T04:14:03;16.88;;;12.90;;
42912;SDS011;50720;54.324;18.558;2023-04-15T04:16:33;20.55;;;13.27;;
42912;SDS011;50720;54.324;18.558;2023-04-15T04:19:03;20.75;;;13.82;;
42912;SDS011;50720;54.324;18.558;2023-04-15T04:21:32;22.13;;;12.82;;
42912;SDS011;50720;54.324;18.558;2023-04-15T04:24:02;19.15;;;13.13;;
42912;SDS011;50720;54.324;18.558;2023-04-15T04:26:33;23.00;;;14.82;;
42912;SDS011;50720;54.324;18.558;2023-04-15T04:29:03;21.77;;;14.40;;
42912;SDS011;50720;54.324;18.558;2023-04-15T04:31:32;21.65;;;13.43;;
42912;SDS011;50720;54.324;18.558;2023-04-15T04:34:03;18.17;;;13.65;;
42912;SDS011;50720;54.324;18.558;2023-04-15T04:36:33;22.40;;;13.63;;
42912;SDS011;50720;54.324;18.558;2023-04-15T04:39:02;23.20;;;13.85;;
42912;SDS011;50720;54.324;18.558;2023-04-15T04:41:34;18.70;;;13.65;;
42912;SDS011;50720;54.324;18.558;2023-04-15T04:44:03;21.23;;;13.20;;
42912;SDS011;50720;54.324;18.558;2023-04-15T04:46:33;24.48;;;14.95;;
42912;SDS011;50720;54.324;18.558;2023-04-15T04:49:02;21.70;;;14.30;;
42912;SDS011;50720;54.324;18.558;2023-04-15T04:51:32;21.73;;;13.50;;
42912;SDS011;50720;54.324;18.558;2023-04-15T04:54:02;23.88;;;14.30;;
42912;SDS011;50720;54.324;18.558;2023-04-15T04:59:05;22.30;;;13.75;;
42912;SDS011;50720;54.324;18.558;2023-04-15T05:01:36;21.83;;;14.02;;
42912;SDS011;50720;54.324;18.558;2023-04-15T05:04:05;21.85;;;14.65;;
42912;SDS011;50720;54.324;18.558;2023-04-15T05:06:35;20.80;;;15.63;;
42912;SDS011;50720;54.324;18.558;2023-04-15T05:09:05;21.35;;;14.00;;
42912;SDS011;50720;54.324;18.558;2023-04-15T05:11:36;22.70;;;13.52;;
42912;SDS011;50720;54.324;18.558;2023-04-15T05:14:05;25.13;;;15.02;;
42912;SDS011;50720;54.324;18.558;2023-04-15T05:16:35;20.63;;;13.70;;
42912;SDS011;50720;54.324;18.558;2023-04-15T05:19:04;23.90;;;14.20;;
42912;SDS011;50720;54.324;18.558;2023-04-15T05:21:34;22.65;;;13.05;;
42912;SDS011;50720;54.324;18.558;2023-04-15T05:24:05;24.52;;;14.20;;
42912;SDS011;50720;54.324;18.558;2023-04-15T05:26:36;21.05;;;13.23;;
42912;SDS011;50720;54.324;18.558;2023-04-15T05:29:07;21.83;;;14.68;;
42912;SDS011;50720;54.324;18.558;2023-04-15T05:31:38;16.83;;;13.02;;
42912;SDS011;50720;54.324;18.558;2023-04-15T05:34:08;20.60;;;14.20;;
42912;SDS011;50720;54.324;18.558;2023-04-15T05:36:38;20.42;;;13.45;;
42912;SDS011;50720;54.324;18.558;2023-04-15T05:39:07;25.10;;;14.63;;
42912;SDS011;50720;54.324;18.558;2023-04-15T05:41:38;19.65;;;13.35;;
42912;SDS011;50720;54.324;18.558;2023-04-15T05:44:08;22.00;;;14.07;;
42912;SDS011;50720;54.324;18.558;2023-04-15T05:46:37;23.20;;;13.57;;
42912;SDS011;50720;54.324;18.558;2023-04-15T05:49:07;21.45;;;14.55;;
42912;SDS011;50720;54.324;18.558;2023-04-15T05:51:37;21.70;;;14.40;;
42912;SDS011;50720;54.324;18.558;2023-04-15T05:54:06;25.00;;;14.07;;
42912;SDS011;50720;54.324;18.558;2023-04-15T05:56:36;17.70;;;14.18;;
42912;SDS011;50720;54.324;18.558;2023-04-15T05:59:07;19.38;;;13.88;;
42912;SDS011;50720;54.324;18.558;2023-04-15T06:01:37;21.15;;;13.85;;
42912;SDS011;50720;54.324;18.558;2023-04-15T06:04:06;16.95;;;13.10;;
42912;SDS011;50720;54.324;18.558;2023-04-15T06:06:36;18.10;;;12.75;;
42912;SDS011;50720;54.324;18.558;2023-04-15T06:09:06;19.40;;;12.85;;
42912;SDS011;50720;54.324;18.558;2023-04-15T06:11:37;26.13;;;14.45;;
42912;SDS011;50720;54.324;18.558;2023-04-15T06:14:08;23.98;;;14.18;;
42912;SDS011;50720;54.324;18.558;2023-04-15T06:16:38;32.47;;;14.38;;
42912;SDS011;50720;54.324;18.558;2023-04-15T06:19:07;30.35;;;13.50;;
42912;SDS011;50720;54.324;18.558;2023-04-15T06:21:37;23.07;;;14.17;;
42912;SDS011;50720;54.324;18.558;2023-04-15T06:24:07;28.52;;;14.85;;
42912;SDS011;50720;54.324;18.558;2023-04-15T06:26:38;19.85;;;14.02;;
42912;SDS011;50720;54.324;18.558;2023-04-15T06:29:08;22.50;;;13.52;;
42912;SDS011;50720;54.324;18.558;2023-04-15T06:31:38;20.23;;;13.45;;
42912;SDS011;50720;54.324;18.558;2023-04-15T06:34:07;21.98;;;14.55;;
42912;SDS011;50720;54.324;18.558;2023-04-15T06:36:37;21.15;;;13.80;;
42912;SDS011;50720;54.324;18.558;2023-04-15T06:39:06;21.73;;;14.32;;
42912;SDS011;50720;54.324;18.558;2023-04-15T06:41:37;22.13;;;13.82;;
42912;SDS011;50720;54.324;18.558;2023-04-15T06:44:07;22.67;;;13.55;;
42912;SDS011;50720;54.324;18.558;2023-04-15T06:46:37;25.83;;;14.32;;
42912;SDS011;50720;54.324;18.558;2023-04-15T06:49:07;22.48;;;14.43;;
42912;SDS011;50720;54.324;18.558;2023-04-15T06:51:37;18.75;;;12.82;;
42912;SDS011;50720;54.324;18.558;2023-04-15T06:54:06;19.70;;;13.50;;
42912;SDS011;50720;54.324;18.558;2023-04-15T06:56:36;22.40;;;13.38;;
42912;SDS011;50720;54.324;18.558;2023-04-15T06:59:08;19.52;;;12.90;;
42912;SDS011;50720;54.324;18.558;2023-04-15T07:01:38;22.10;;;13.85;;
42912;SDS011;50720;54.324;18.558;2023-04-15T07:04:09;24.75;;;13.98;;
42912;SDS011;50720;54.324;18.558;2023-04-15T07:06:39;21.58;;;13.25;;
42912;SDS011;50720;54.324;18.558;2023-04-15T07:09:09;22.98;;;13.57;;
42912;SDS011;50720;54.324;18.558;2023-04-15T07:11:40;19.13;;;13.47;;
42912;SDS011;50720;54.324;18.558;2023-04-15T07:16:39;22.85;;;13.00;;
42912;SDS011;50720;54.324;18.558;2023-04-15T07:19:09;20.40;;;12.70;;
42912;SDS011;50720;54.324;18.558;2023-04-15T07:21:39;20.42;;;13.95;;
42912;SDS011;50720;54.324;18.558;2023-04-15T07:24:09;24.87;;;13.90;;
42912;SDS011;50720;54.324;18.558;2023-04-15T07:26:40;21.17;;;12.57;;
42912;SDS011;50720;54.324;18.558;2023-04-15T07:29:09;21.00;;;13.93;;
42912;SDS011;50720;54.324;18.558;2023-04-15T07:31:39;20.92;;;13.63;;
42912;SDS011;50720;54.324;18.558;2023-04-15T07:34:09;21.45;;;11.50;;
42912;SDS011;50720;54.324;18.558;2023-04-15T07:36:39;18.88;;;11.77;;
42912;SDS011;50720;54.324;18.558;2023-04-15T07:39:08;20.83;;;12.57;;
42912;SDS011;50720;54.324;18.558;2023-04-15T07:41:40;19.27;;;11.13;;
42912;SDS011;50720;54.324;18.558;2023-04-15T07:44:10;20.13;;;11.32;;
42912;SDS011;50720;54.324;18.558;2023-04-15T07:46:40;18.23;;;11.40;;
42912;SDS011;50720;54.324;18.558;2023-04-15T07:49:09;17.02;;;11.93;;
42912;SDS011;50720;54.324;18.558;2023-04-15T07:51:39;20.42;;;12.00;;
42912;SDS011;50720;54.324;18.558;2023-04-15T07:54:10;18.40;;;11.15;;
42912;SDS011;50720;54.324;18.558;2023-04-15T07:56:41;18.75;;;11.25;;
42912;SDS011;50720;54.324;18.558;2023-04-15T08:01:42;17.95;;;10.90;;
42912;SDS011;50720;54.324;18.558;2023-04-15T08:04:12;15.18;;;10.30;;
42912;SDS011;50720;54.324;18.558;2023-04-15T08:06:43;18.80;;;12.15;;
42912;SDS011;50720;54.324;18.558;2023-04-15T08:09:14;16.40;;;10.70;;
42912;SDS011;50720;54.324;18.558;2023-04-15T08:11:47;14.35;;;10.30;;
42912;SDS011;50720;54.324;18.558;2023-04-15T08:14:16;17.83;;;11.02;;
42912;SDS011;50720;54.324;18.558;2023-04-15T08:16:46;17.38;;;10.27;;
42912;SDS011;50720;54.324;18.558;2023-04-15T08:19:15;14.35;;;9.77;;
42912;SDS011;50720;54.324;18.558;2023-04-15T08:21:46;17.35;;;11.85;;
42912;SDS011;50720;54.324;18.558;2023-04-15T08:24:15;15.73;;;10.43;;
42912;SDS011;50720;54.324;18.558;2023-04-15T08:26:47;16.70;;;10.63;;
42912;SDS011;50720;54.324;18.558;2023-04-15T08:29:16;16.17;;;9.95;;
42912;SDS011;50720;54.324;18.558;2023-04-15T08:34:16;18.25;;;10.27;;
42912;SDS011;50720;54.324;18.558;2023-04-15T08:36:46;15.90;;;10.65;;
42912;SDS011;50720;54.324;18.558;2023-04-15T08:39:16;21.27;;;10.18;;
42912;SDS011;50720;54.324;18.558;2023-04-15T08:41:50;19.15;;;10.07;;
42912;SDS011;50720;54.324;18.558;2023-04-15T08:44:23;16.58;;;10.52;;
42912;SDS011;50720;54.324;18.558;2023-04-15T08:46:54;14.55;;;10.32;;
42912;SDS011;50720;54.324;18.558;2023-04-15T08:49:28;13.82;;;10.60;;
42912;SDS011;50720;54.324;18.558;2023-04-15T08:51:59;14.40;;;10.80;;
42912;SDS011;50720;54.324;18.558;2023-04-15T08:54:30;16.60;;;9.73;;
42912;SDS011;50720;54.324;18.558;2023-04-15T08:57:02;16.10;;;9.48;;
42912;SDS011;50720;54.324;18.558;2023-04-15T08:59:32;12.38;;;8.80;;
42912;SDS011;50720;54.324;18.558;2023-04-15T09:02:02;18.30;;;10.00;;
42912;SDS011;50720;54.324;18.558;2023-04-15T09:04:32;14.85;;;9.38;;
42912;SDS011;50720;54.324;18.558;2023-04-15T09:07:02;15.27;;;10.43;;
42912;SDS011;50720;54.324;18.558;2023-04-15T09:09:31;15.45;;;10.45;;
42912;SDS011;50720;54.324;18.558;2023-04-15T09:12:04;14.43;;;9.43;;
42912;SDS011;50720;54.324;18.558;2023-04-15T09:14:34;15.25;;;10.27;;
42912;SDS011;50720;54.324;18.558;2023-04-15T09:17:07;13.80;;;9.98;;
42912;SDS011;50720;54.324;18.558;2023-04-15T09:19:38;17.48;;;10.55;;
42912;SDS011;50720;54.324;18.558;2023-04-15T09:22:08;13.32;;;9.13;;
42912;SDS011;50720;54.324;18.558;2023-04-15T09:24:37;18.35;;;9.57;;
42912;SDS011;50720;54.324;18.558;2023-04-15T09:27:11;17.75;;;10.02;;
42912;SDS011;50720;54.324;18.558;2023-04-15T09:29:44;14.20;;;9.25;;
42912;SDS011;50720;54.324;18.558;2023-04-15T09:32:18;13.82;;;9.73;;
42912;SDS011;50720;54.324;18.558;2023-04-15T09:34:50;18.23;;;9.93;;
42912;SDS011;50720;54.324;18.558;2023-04-15T09:37:25;11.18;;;9.15;;
42912;SDS011;50720;54.324;18.558;2023-04-15T09:40:03;13.93;;;9.85;;
42912;SDS011;50720;54.324;18.558;2023-04-15T09:42:35;14.25;;;9.57;;
42912;SDS011;50720;54.324;18.558;2023-04-15T09:45:21;16.27;;;9.95;;
42912;SDS011;50720;54.324;18.558;2023-04-15T09:47:56;19.35;;;9.57;;
42912;SDS011;50720;54.324;18.558;2023-04-15T09:50:27;14.68;;;10.70;;
42912;SDS011;50720;54.324;18.558;2023-04-15T09:52:57;17.58;;;10.90;;
42912;SDS011;50720;54.324;18.558;2023-04-15T09:55:26;15.65;;;9.55;;
42912;SDS011;50720;54.324;18.558;2023-04-15T09:58:02;17.55;;;9.57;;
42912;SDS011;50720;54.324;18.558;2023-04-15T10:00:37;15.50;;;10.65;;
42912;SDS011;50720;54.324;18.558;2023-04-15T10:03:08;15.70;;;9.63;;
42912;SDS011;50720;54.324;18.558;2023-04-15T10:05:38;14.80;;;9.80;;
42912;SDS011;50720;54.324;18.558;2023-04-15T10:08:08;13.03;;;8.97;;
42912;SDS011;50720;54.324;18.558;2023-04-15T10:10:38;17.17;;;9.37;;
42912;SDS011;50720;54.324;18.558;2023-04-15T10:13:10;14.82;;;10.20;;
42912;SDS011;50720;54.324;18.558;2023-04-15T10:15:41;20.58;;;10.25;;
42912;SDS011;50720;54.324;18.558;2023-04-15T10:18:14;13.95;;;9.63;;
42912;SDS011;50720;54.324;18.558;2023-04-15T10:20:46;17.60;;;10.45;;
42912;SDS011;50720;54.324;18.558;2023-04-15T10:23:16;15.98;;;9.50;;
42912;SDS011;50720;54.324;18.558;2023-04-15T10:25:48;20.70;;;10.60;;
42912;SDS011;50720;54.324;18.558;2023-04-15T10:28:21;19.10;;;10.95;;
42912;SDS011;50720;54.324;18.558;2023-04-15T10:30:50;11.63;;;8.95;;
42912;SDS011;50720;54.324;18.558;2023-04-15T10:35:51;15.57;;;8.52;;
42912;SDS011;50720;54.324;18.558;2023-04-15T10:38:33;15.27;;;8.80;;
42912;SDS011;50720;54.324;18.558;2023-04-15T10:41:14;15.32;;;8.88;;
42912;SDS011;50720;54.324;18.558;2023-04-15T10:43:50;18.30;;;9.25;;
42912;SDS011;50720;54.324;18.558;2023-04-15T10:46:21;15.63;;;8.77;;
42912;SDS011;50720;54.324;18.558;2023-04-15T10:48:52;15.40;;;7.90;;
42912;SDS011;50720;54.324;18.558;2023-04-15T10:51:28;13.40;;;8.65;;
42912;SDS011;50720;54.324;18.558;2023-04-15T10:53:59;11.93;;;9.13;;
42912;SDS011;50720;54.324;18.558;2023-04-15T10:56:28;17.17;;;8.73;;
42912;SDS011;50720;54.324;18.558;2023-04-15T10:59:00;14.57;;;8.57;;
42912;SDS011;50720;54.324;18.558;2023-04-15T11:01:52;17.52;;;9.35;;
42912;SDS011;50720;54.324;18.558;2023-04-15T11:07:35;14.68;;;7.78;;
42912;SDS011;50720;54.324;18.558;2023-04-15T11:13:23;12.15;;;8.23;;
42912;SDS011;50720;54.324;18.558;2023-04-15T11:16:02;12.82;;;7.78;;
42912;SDS011;50720;54.324;18.558;2023-04-15T11:18:32;12.23;;;8.82;;
42912;SDS011;50720;54.324;18.558;2023-04-15T11:21:03;11.50;;;8.40;;
42912;SDS011;50720;54.324;18.558;2023-04-15T11:23:35;12.48;;;8.20;;
42912;SDS011;50720;54.324;18.558;2023-04-15T11:26:07;14.75;;;9.05;;
42912;SDS011;50720;54.324;18.558;2023-04-15T11:28:39;16.15;;;8.57;;
42912;SDS011;50720;54.324;18.558;2023-04-15T11:31:12;14.65;;;8.50;;
42912;SDS011;50720;54.324;18.558;2023-04-15T11:33:53;13.73;;;8.75;;
42912;SDS011;50720;54.324;18.558;2023-04-15T11:36:24;15.98;;;8.75;;
42912;SDS011;50720;54.324;18.558;2023-04-15T11:38:56;9.43;;;7.63;;
42912;SDS011;50720;54.324;18.558;2023-04-15T11:41:26;13.95;;;8.35;;
42912;SDS011;50720;54.324;18.558;2023-04-15T11:43:56;13.00;;;7.65;;
42912;SDS011;50720;54.324;18.558;2023-04-15T11:46:29;10.95;;;7.72;;
42912;SDS011;50720;54.324;18.558;2023-04-15T11:48:59;11.43;;;8.70;;
42912;SDS011;50720;54.324;18.558;2023-04-15T11:51:31;14.05;;;7.82;;
42912;SDS011;50720;54.324;18.558;2023-04-15T11:54:01;12.20;;;8.63;;
42912;SDS011;50720;54.324;18.558;2023-04-15T11:56:31;11.50;;;8.20;;
42912;SDS011;50720;54.324;18.558;2023-04-15T11:59:01;12.97;;;7.80;;
42912;SDS011;50720;54.324;18.558;2023-04-15T12:01:32;11.88;;;8.43;;
42912;SDS011;50720;54.324;18.558;2023-04-15T12:04:09;11.88;;;7.28;;
42912;SDS011;50720;54.324;18.558;2023-04-15T12:06:41;10.98;;;7.72;;
42912;SDS011;50720;54.324;18.558;2023-04-15T12:09:11;9.07;;;7.53;;
42912;SDS011;50720;54.324;18.558;2023-04-15T12:11:42;11.88;;;8.45;;
42912;SDS011;50720;54.324;18.558;2023-04-15T12:14:20;10.85;;;7.43;;
42912;SDS011;50720;54.324;18.558;2023-04-15T12:16:54;11.68;;;8.02;;
42912;SDS011;50720;54.324;18.558;2023-04-15T12:19:27;12.57;;;7.68;;
42912;SDS011;50720;54.324;18.558;2023-04-15T12:21:59;10.43;;;7.72;;
42912;SDS011;50720;54.324;18.558;2023-04-15T12:24:30;10.93;;;7.13;;
42912;SDS011;50720;54.324;18.558;2023-04-15T12:27:01;15.02;;;7.57;;
42912;SDS011;50720;54.324;18.558;2023-04-15T12:29:33;12.93;;;8.30;;
42912;SDS011;50720;54.324;18.558;2023-04-15T12:32:06;13.70;;;8.07;;
42912;SDS011;50720;54.324;18.558;2023-04-15T12:34:38;13.07;;;7.60;;
42912;SDS011;50720;54.324;18.558;2023-04-15T12:37:09;12.25;;;8.05;;
42912;SDS011;50720;54.324;18.558;2023-04-15T12:39:41;15.38;;;8.23;;
42912;SDS011;50720;54.324;18.558;2023-04-15T12:42:13;13.27;;;7.88;;
42912;SDS011;50720;54.324;18.558;2023-04-15T12:47:14;12.95;;;7.78;;
42912;SDS011;50720;54.324;18.558;2023-04-15T12:49:43;11.45;;;8.07;;
42912;SDS011;50720;54.324;18.558;2023-04-15T12:52:13;16.08;;;8.82;;
42912;SDS011;50720;54.324;18.558;2023-04-15T12:54:43;12.10;;;7.72;;
42912;SDS011;50720;54.324;18.558;2023-04-15T12:57:12;12.82;;;8.60;;
42912;SDS011;50720;54.324;18.558;2023-04-15T12:59:42;14.30;;;7.78;;
42912;SDS011;50720;54.324;18.558;2023-04-15T13:02:11;11.20;;;7.47;;
42912;SDS011;50720;54.324;18.558;2023-04-15T13:04:43;15.65;;;7.72;;
42912;SDS011;50720;54.324;18.558;2023-04-15T13:07:13;12.50;;;8.10;;
42912;SDS011;50720;54.324;18.558;2023-04-15T13:09:42;13.63;;;8.20;;
42912;SDS011;50720;54.324;18.558;2023-04-15T13:12:12;12.65;;;8.70;;
42912;SDS011;50720;54.324;18.558;2023-04-15T13:14:42;13.75;;;8.35;;
42912;SDS011;50720;54.324;18.558;2023-04-15T13:17:13;15.43;;;8.48;;
42912;SDS011;50720;54.324;18.558;2023-04-15T13:19:45;12.25;;;8.20;;
42912;SDS011;50720;54.324;18.558;2023-04-15T13:22:15;10.15;;;7.85;;
42912;SDS011;50720;54.324;18.558;2023-04-15T13:24:45;16.33;;;8.83;;
42912;SDS011;50720;54.324;18.558;2023-04-15T13:27:14;12.00;;;8.70;;
42912;SDS011;50720;54.324;18.558;2023-04-15T13:29:44;12.90;;;8.70;;
42912;SDS011;50720;54.324;18.558;2023-04-15T13:32:15;13.70;;;8.93;;
42912;SDS011;50720;54.324;18.558;2023-04-15T13:34:45;14.13;;;7.95;;
42912;SDS011;50720;54.324;18.558;2023-04-15T13:37:15;13.45;;;8.57;;
42912;SDS011;50720;54.324;18.558;2023-04-15T13:39:44;10.73;;;7.57;;
42912;SDS011;50720;54.324;18.558;2023-04-15T13:42:14;12.88;;;7.80;;
42912;SDS011;50720;54.324;18.558;2023-04-15T13:44:44;14.63;;;8.43;;
42912;SDS011;50720;54.324;18.558;2023-04-15T13:47:15;13.48;;;8.75;;
42912;SDS011;50720;54.324;18.558;2023-04-15T13:49:45;13.40;;;8.20;;
42912;SDS011;50720;54.324;18.558;2023-04-15T13:52:15;11.25;;;7.13;;
42912;SDS011;50720;54.324;18.558;2023-04-15T13:54:45;11.43;;;7.65;;
42912;SDS011;50720;54.324;18.558;2023-04-15T13:57:34;10.52;;;7.53;;
42912;SDS011;50720;54.324;18.558;2023-04-15T14:00:05;11.25;;;7.35;;
42912;SDS011;50720;54.324;18.558;2023-04-15T14:02:38;12.35;;;7.85;;
42912;SDS011;50720;54.324;18.558;2023-04-15T14:05:09;17.67;;;9.30;;
42912;SDS011;50720;54.324;18.558;2023-04-15T14:07:38;14.82;;;8.85;;
42912;SDS011;50720;54.324;18.558;2023-04-15T14:10:08;14.15;;;8.50;;
42912;SDS011;50720;54.324;18.558;2023-04-15T14:12:38;11.90;;;8.73;;
42912;SDS011;50720;54.324;18.558;2023-04-15T14:15:08;15.75;;;9.55;;
42912;SDS011;50720;54.324;18.558;2023-04-15T14:17:40;12.77;;;8.30;;
42912;SDS011;50720;54.324;18.558;2023-04-15T14:20:10;13.35;;;8.23;;
42912;SDS011;50720;54.324;18.558;2023-04-15T14:22:43;11.90;;;8.60;;
42912;SDS011;50720;54.324;18.558;2023-04-15T14:25:13;14.07;;;9.10;;
42912;SDS011;50720;54.324;18.558;2023-04-15T14:27:58;14.63;;;8.55;;
42912;SDS011;50720;54.324;18.558;2023-04-15T14:30:28;10.85;;;8.05;;
42912;SDS011;50720;54.324;18.558;2023-04-15T14:32:59;11.65;;;8.20;;
42912;SDS011;50720;54.324;18.558;2023-04-15T14:35:30;15.85;;;8.30;;
42912;SDS011;50720;54.324;18.558;2023-04-15T14:38:00;13.25;;;8.45;;
42912;SDS011;50720;54.324;18.558;2023-04-15T14:40:30;14.50;;;9.13;;
42912;SDS011;50720;54.324;18.558;2023-04-15T14:43:01;17.17;;;10.10;;
42912;SDS011;50720;54.324;18.558;2023-04-15T14:45:31;15.57;;;8.65;;
42912;SDS011;50720;54.324;18.558;2023-04-15T14:48:02;15.13;;;8.88;;
42912;SDS011;50720;54.324;18.558;2023-04-15T14:50:33;13.60;;;9.07;;
42912;SDS011;50720;54.324;18.558;2023-04-15T14:53:03;16.58;;;9.60;;
42912;SDS011;50720;54.324;18.558;2023-04-15T14:55:32;15.00;;;9.73;;
42912;SDS011;50720;54.324;18.558;2023-04-15T14:58:02;12.57;;;9.02;;
42912;SDS011;50720;54.324;18.558;2023-04-15T15:00:32;13.43;;;9.35;;
42912;SDS011;50720;54.324;18.558;2023-04-15T15:03:03;14.82;;;8.60;;